Kezdőlap
METAR-TAF:

METAR-TAF

Repülőterek :

Concordia, Kansas, Amerikai Egyesült Államok

földrajzi szélesség: 39-33-05N, földrajzi hosszúság: 097-39-02W, magasság: 453 m

Jelenlegi meteorológiai megfigyelések

A jelentés 39 perccel ezelõtt készült, 21:55 UTC
Észak-északnyugati szél 12 kt széllökések: 17 kt
Hőmérséklet 28°C
Páratartalom 42%
Légköri nyomás 1005 hPa
Látótávolság: 16.1 km
Kevés felhő 5500 lábon

METAR: KCNK 262155Z AUTO 34012G17KT 10SM FEW055 28/14 A2968 RMK AO2 SLP037 T02780144

Idő: 17:34 (22:34 UTC)


TAF: hiányzik

Meteorológiai megfigyelések és előrejelzések több, mint 4000 repülőtéren (METAR és TAF jelentéseket).

A térképen piros és sárga pontok jelzik az elérhető meteorológiai állomásokat.

Mozgassa az egeret a pont fölött, hogy megjelenjen az állomás neve.

Azután kattintson az időjárási megfigyelések és előrejelzések megtekintéséhez.

A térkép megváltoztatása: kattintson a fekete keresztel jelölt zöld gombra ráközelítéshez, a vonallal jelölt zöld gombra távolításhoz, vagy a zöld nyilakra a szomszédos térképek eléréséhez.


METAR-TAF: